sensor_id;sensor_type;location;lat;lon;timestamp;P1;durP1;ratioP1;P2;durP2;ratioP2
9459;SDS011;4768;42.664;23.240;2023-07-20T00:01:31;4.87;;;2.33;;
9459;SDS011;4768;42.664;23.240;2023-07-20T00:03:57;5.30;;;2.20;;
9459;SDS011;4768;42.664;23.240;2023-07-20T00:06:24;6.37;;;2.00;;
9459;SDS011;4768;42.664;23.240;2023-07-20T00:08:54;6.20;;;1.97;;
9459;SDS011;4768;42.664;23.240;2023-07-20T00:11:20;7.70;;;2.30;;
9459;SDS011;4768;42.664;23.240;2023-07-20T00:13:47;4.53;;;2.07;;
9459;SDS011;4768;42.664;23.240;2023-07-20T00:16:13;5.32;;;2.25;;
9459;SDS011;4768;42.664;23.240;2023-07-20T00:18:40;4.28;;;1.98;;
9459;SDS011;4768;42.664;23.240;2023-07-20T00:21:06;4.60;;;2.03;;
9459;SDS011;4768;42.664;23.240;2023-07-20T00:23:33;4.20;;;2.20;;
9459;SDS011;4768;42.664;23.240;2023-07-20T00:26:01;6.47;;;2.17;;
9459;SDS011;4768;42.664;23.240;2023-07-20T00:28:27;4.77;;;2.00;;
9459;SDS011;4768;42.664;23.240;2023-07-20T00:30:54;5.47;;;2.50;;
9459;SDS011;4768;42.664;23.240;2023-07-20T00:33:20;7.55;;;2.20;;
9459;SDS011;4768;42.664;23.240;2023-07-20T00:35:47;3.83;;;2.00;;
9459;SDS011;4768;42.664;23.240;2023-07-20T00:38:13;6.03;;;2.33;;
9459;SDS011;4768;42.664;23.240;2023-07-20T00:40:40;3.87;;;2.40;;
9459;SDS011;4768;42.664;23.240;2023-07-20T00:43:08;9.10;;;2.63;;
9459;SDS011;4768;42.664;23.240;2023-07-20T00:45:35;3.37;;;2.23;;
9459;SDS011;4768;42.664;23.240;2023-07-20T00:48:02;6.23;;;2.30;;
9459;SDS011;4768;42.664;23.240;2023-07-20T00:50:30;4.70;;;2.07;;
9459;SDS011;4768;42.664;23.240;2023-07-20T00:52:57;3.60;;;2.20;;
9459;SDS011;4768;42.664;23.240;2023-07-20T00:55:24;7.27;;;2.50;;
9459;SDS011;4768;42.664;23.240;2023-07-20T00:57:51;7.87;;;2.53;;
9459;SDS011;4768;42.664;23.240;2023-07-20T01:00:19;5.93;;;2.10;;
9459;SDS011;4768;42.664;23.240;2023-07-20T01:02:46;7.30;;;2.50;;
9459;SDS011;4768;42.664;23.240;2023-07-20T01:05:12;7.83;;;2.30;;
9459;SDS011;4768;42.664;23.240;2023-07-20T01:07:42;4.23;;;2.30;;
9459;SDS011;4768;42.664;23.240;2023-07-20T01:10:12;7.17;;;2.07;;
9459;SDS011;4768;42.664;23.240;2023-07-20T01:12:42;4.13;;;2.20;;
9459;SDS011;4768;42.664;23.240;2023-07-20T01:15:09;5.50;;;1.70;;
9459;SDS011;4768;42.664;23.240;2023-07-20T01:17:38;3.70;;;2.13;;
9459;SDS011;4768;42.664;23.240;2023-07-20T01:20:05;6.93;;;2.57;;
9459;SDS011;4768;42.664;23.240;2023-07-20T01:22:38;4.33;;;2.10;;
9459;SDS011;4768;42.664;23.240;2023-07-20T01:25:19;7.20;;;2.13;;
9459;SDS011;4768;42.664;23.240;2023-07-20T01:30:42;3.77;;;1.93;;
9459;SDS011;4768;42.664;23.240;2023-07-20T01:33:12;4.03;;;2.60;;
9459;SDS011;4768;42.664;23.240;2023-07-20T01:35:39;4.77;;;2.60;;
9459;SDS011;4768;42.664;23.240;2023-07-20T01:38:08;5.20;;;2.50;;
9459;SDS011;4768;42.664;23.240;2023-07-20T01:40:35;4.33;;;2.33;;
9459;SDS011;4768;42.664;23.240;2023-07-20T01:43:01;9.97;;;2.43;;
9459;SDS011;4768;42.664;23.240;2023-07-20T01:45:28;6.43;;;1.93;;
9459;SDS011;4768;42.664;23.240;2023-07-20T01:47:54;6.47;;;1.90;;
9459;SDS011;4768;42.664;23.240;2023-07-20T01:50:22;5.03;;;2.57;;
9459;SDS011;4768;42.664;23.240;2023-07-20T01:52:49;8.23;;;2.20;;
9459;SDS011;4768;42.664;23.240;2023-07-20T01:55:15;4.07;;;2.50;;
9459;SDS011;4768;42.664;23.240;2023-07-20T01:57:42;12.80;;;2.93;;
9459;SDS011;4768;42.664;23.240;2023-07-20T02:00:09;4.17;;;2.40;;
9459;SDS011;4768;42.664;23.240;2023-07-20T02:02:37;5.37;;;2.50;;
9459;SDS011;4768;42.664;23.240;2023-07-20T02:05:03;6.30;;;2.53;;
9459;SDS011;4768;42.664;23.240;2023-07-20T02:07:32;6.97;;;2.53;;
9459;SDS011;4768;42.664;23.240;2023-07-20T02:09:58;5.93;;;2.50;;
9459;SDS011;4768;42.664;23.240;2023-07-20T02:12:24;4.63;;;2.40;;
9459;SDS011;4768;42.664;23.240;2023-07-20T02:14:51;4.30;;;2.30;;
9459;SDS011;4768;42.664;23.240;2023-07-20T02:17:18;4.43;;;2.50;;
9459;SDS011;4768;42.664;23.240;2023-07-20T02:19:44;4.63;;;2.37;;
9459;SDS011;4768;42.664;23.240;2023-07-20T02:22:14;8.57;;;2.33;;
9459;SDS011;4768;42.664;23.240;2023-07-20T02:24:43;6.97;;;2.90;;
9459;SDS011;4768;42.664;23.240;2023-07-20T02:27:09;8.17;;;2.83;;
9459;SDS011;4768;42.664;23.240;2023-07-20T02:29:36;5.67;;;2.77;;
9459;SDS011;4768;42.664;23.240;2023-07-20T02:32:02;3.70;;;2.50;;
9459;SDS011;4768;42.664;23.240;2023-07-20T02:34:29;6.00;;;2.40;;
9459;SDS011;4768;42.664;23.240;2023-07-20T02:36:55;7.33;;;2.80;;
9459;SDS011;4768;42.664;23.240;2023-07-20T02:39:23;5.17;;;3.00;;
9459;SDS011;4768;42.664;23.240;2023-07-20T02:41:51;6.43;;;2.60;;
9459;SDS011;4768;42.664;23.240;2023-07-20T02:44:18;5.03;;;2.33;;
9459;SDS011;4768;42.664;23.240;2023-07-20T02:46:44;6.97;;;3.10;;
9459;SDS011;4768;42.664;23.240;2023-07-20T02:49:11;10.10;;;2.60;;
9459;SDS011;4768;42.664;23.240;2023-07-20T02:51:37;6.07;;;2.70;;
9459;SDS011;4768;42.664;23.240;2023-07-20T02:54:04;5.03;;;2.37;;
9459;SDS011;4768;42.664;23.240;2023-07-20T02:56:30;6.27;;;3.13;;
9459;SDS011;4768;42.664;23.240;2023-07-20T02:58:58;7.70;;;3.03;;
9459;SDS011;4768;42.664;23.240;2023-07-20T03:01:25;6.20;;;2.63;;
9459;SDS011;4768;42.664;23.240;2023-07-20T03:03:54;7.00;;;2.50;;
9459;SDS011;4768;42.664;23.240;2023-07-20T03:06:20;4.23;;;2.83;;
9459;SDS011;4768;42.664;23.240;2023-07-20T03:08:47;5.60;;;2.60;;
9459;SDS011;4768;42.664;23.240;2023-07-20T03:11:17;8.60;;;2.63;;
9459;SDS011;4768;42.664;23.240;2023-07-20T03:13:44;6.97;;;2.80;;
9459;SDS011;4768;42.664;23.240;2023-07-20T03:16:12;6.93;;;2.73;;
9459;SDS011;4768;42.664;23.240;2023-07-20T03:18:40;5.77;;;2.90;;
9459;SDS011;4768;42.664;23.240;2023-07-20T03:21:07;7.53;;;3.13;;
9459;SDS011;4768;42.664;23.240;2023-07-20T03:23:36;10.30;;;2.77;;
9459;SDS011;4768;42.664;23.240;2023-07-20T03:26:03;6.47;;;2.70;;
9459;SDS011;4768;42.664;23.240;2023-07-20T03:28:29;5.93;;;3.23;;
9459;SDS011;4768;42.664;23.240;2023-07-20T03:30:55;3.80;;;2.80;;
9459;SDS011;4768;42.664;23.240;2023-07-20T03:33:25;6.23;;;3.47;;
9459;SDS011;4768;42.664;23.240;2023-07-20T03:35:52;4.90;;;2.70;;
9459;SDS011;4768;42.664;23.240;2023-07-20T03:38:19;6.17;;;3.07;;
9459;SDS011;4768;42.664;23.240;2023-07-20T03:40:49;4.20;;;2.30;;
9459;SDS011;4768;42.664;23.240;2023-07-20T03:43:15;5.47;;;3.03;;
9459;SDS011;4768;42.664;23.240;2023-07-20T03:45:42;3.97;;;2.80;;
9459;SDS011;4768;42.664;23.240;2023-07-20T03:48:08;6.10;;;2.57;;
9459;SDS011;4768;42.664;23.240;2023-07-20T03:50:36;5.33;;;2.80;;
9459;SDS011;4768;42.664;23.240;2023-07-20T03:53:02;7.63;;;2.93;;
9459;SDS011;4768;42.664;23.240;2023-07-20T03:55:29;6.37;;;3.30;;
9459;SDS011;4768;42.664;23.240;2023-07-20T03:57:55;5.73;;;2.93;;
9459;SDS011;4768;42.664;23.240;2023-07-20T04:00:22;5.63;;;3.03;;
9459;SDS011;4768;42.664;23.240;2023-07-20T04:02:49;4.77;;;2.80;;
9459;SDS011;4768;42.664;23.240;2023-07-20T04:05:15;7.00;;;2.80;;
9459;SDS011;4768;42.664;23.240;2023-07-20T04:07:43;9.53;;;2.83;;
9459;SDS011;4768;42.664;23.240;2023-07-20T04:10:09;6.23;;;2.63;;
9459;SDS011;4768;42.664;23.240;2023-07-20T04:12:36;4.27;;;2.43;;
9459;SDS011;4768;42.664;23.240;2023-07-20T04:15:03;5.17;;;2.30;;
9459;SDS011;4768;42.664;23.240;2023-07-20T04:17:29;6.93;;;2.30;;
9459;SDS011;4768;42.664;23.240;2023-07-20T04:19:56;6.30;;;2.77;;
9459;SDS011;4768;42.664;23.240;2023-07-20T04:22:22;12.83;;;3.10;;
9459;SDS011;4768;42.664;23.240;2023-07-20T04:24:50;6.37;;;2.63;;
9459;SDS011;4768;42.664;23.240;2023-07-20T04:27:17;5.90;;;2.30;;
9459;SDS011;4768;42.664;23.240;2023-07-20T04:29:43;2.83;;;2.30;;
9459;SDS011;4768;42.664;23.240;2023-07-20T04:32:10;6.73;;;2.73;;
9459;SDS011;4768;42.664;23.240;2023-07-20T04:34:36;6.60;;;2.80;;
9459;SDS011;4768;42.664;23.240;2023-07-20T04:37:03;4.33;;;2.67;;
9459;SDS011;4768;42.664;23.240;2023-07-20T04:39:29;8.63;;;3.13;;
9459;SDS011;4768;42.664;23.240;2023-07-20T04:41:57;5.23;;;2.77;;
9459;SDS011;4768;42.664;23.240;2023-07-20T04:44:24;3.97;;;2.80;;
9459;SDS011;4768;42.664;23.240;2023-07-20T04:46:50;11.50;;;3.40;;
9459;SDS011;4768;42.664;23.240;2023-07-20T04:49:17;5.50;;;2.97;;
9459;SDS011;4768;42.664;23.240;2023-07-20T04:51:44;6.60;;;3.17;;
9459;SDS011;4768;42.664;23.240;2023-07-20T04:54:11;7.17;;;3.07;;
9459;SDS011;4768;42.664;23.240;2023-07-20T04:56:38;8.43;;;3.47;;
9459;SDS011;4768;42.664;23.240;2023-07-20T04:59:07;5.40;;;3.20;;
9459;SDS011;4768;42.664;23.240;2023-07-20T05:01:33;8.73;;;3.30;;
9459;SDS011;4768;42.664;23.240;2023-07-20T05:04:00;7.67;;;3.40;;
9459;SDS011;4768;42.664;23.240;2023-07-20T05:06:26;8.90;;;2.70;;
9459;SDS011;4768;42.664;23.240;2023-07-20T05:08:52;10.80;;;3.00;;
9459;SDS011;4768;42.664;23.240;2023-07-20T05:11:19;3.28;;;2.58;;
9459;SDS011;4768;42.664;23.240;2023-07-20T05:13:46;9.45;;;3.53;;
9459;SDS011;4768;42.664;23.240;2023-07-20T05:16:14;6.72;;;2.75;;
9459;SDS011;4768;42.664;23.240;2023-07-20T05:18:40;5.32;;;2.55;;
9459;SDS011;4768;42.664;23.240;2023-07-20T05:21:06;8.43;;;2.70;;
9459;SDS011;4768;42.664;23.240;2023-07-20T05:23:33;4.20;;;2.40;;
9459;SDS011;4768;42.664;23.240;2023-07-20T05:26:00;6.00;;;2.53;;
9459;SDS011;4768;42.664;23.240;2023-07-20T05:28:26;6.38;;;3.05;;
9459;SDS011;4768;42.664;23.240;2023-07-20T05:30:53;7.35;;;2.40;;
9459;SDS011;4768;42.664;23.240;2023-07-20T05:33:21;8.55;;;3.15;;
9459;SDS011;4768;42.664;23.240;2023-07-20T05:35:47;8.35;;;2.80;;
9459;SDS011;4768;42.664;23.240;2023-07-20T05:38:14;4.57;;;2.38;;
9459;SDS011;4768;42.664;23.240;2023-07-20T05:40:40;6.25;;;2.97;;
9459;SDS011;4768;42.664;23.240;2023-07-20T05:43:07;4.88;;;3.10;;
9459;SDS011;4768;42.664;23.240;2023-07-20T05:45:34;8.77;;;2.65;;
9459;SDS011;4768;42.664;23.240;2023-07-20T05:48:00;11.05;;;3.25;;
9459;SDS011;4768;42.664;23.240;2023-07-20T05:50:28;7.38;;;3.00;;
9459;SDS011;4768;42.664;23.240;2023-07-20T05:52:55;8.63;;;3.17;;
9459;SDS011;4768;42.664;23.240;2023-07-20T05:55:21;5.80;;;2.95;;
9459;SDS011;4768;42.664;23.240;2023-07-20T05:57:48;6.18;;;2.92;;
9459;SDS011;4768;42.664;23.240;2023-07-20T06:00:15;8.25;;;3.15;;
9459;SDS011;4768;42.664;23.240;2023-07-20T06:02:44;6.00;;;2.92;;
9459;SDS011;4768;42.664;23.240;2023-07-20T06:05:11;8.88;;;2.88;;
9459;SDS011;4768;42.664;23.240;2023-07-20T06:07:39;5.43;;;2.75;;
9459;SDS011;4768;42.664;23.240;2023-07-20T06:10:06;9.10;;;2.78;;
9459;SDS011;4768;42.664;23.240;2023-07-20T06:12:32;7.47;;;2.88;;
9459;SDS011;4768;42.664;23.240;2023-07-20T06:15:01;4.68;;;2.50;;
9459;SDS011;4768;42.664;23.240;2023-07-20T06:17:27;11.90;;;2.83;;
9459;SDS011;4768;42.664;23.240;2023-07-20T06:19:54;5.18;;;2.58;;
9459;SDS011;4768;42.664;23.240;2023-07-20T06:22:20;6.15;;;2.38;;
9459;SDS011;4768;42.664;23.240;2023-07-20T06:24:48;6.90;;;2.53;;
9459;SDS011;4768;42.664;23.240;2023-07-20T06:27:15;5.18;;;2.65;;
9459;SDS011;4768;42.664;23.240;2023-07-20T06:29:41;6.53;;;3.20;;
9459;SDS011;4768;42.664;23.240;2023-07-20T06:32:08;10.15;;;3.13;;
9459;SDS011;4768;42.664;23.240;2023-07-20T06:34:34;8.40;;;3.17;;
9459;SDS011;4768;42.664;23.240;2023-07-20T06:37:03;5.97;;;3.08;;
9459;SDS011;4768;42.664;23.240;2023-07-20T06:39:30;6.18;;;2.92;;
9459;SDS011;4768;42.664;23.240;2023-07-20T06:41:58;9.25;;;2.63;;
9459;SDS011;4768;42.664;23.240;2023-07-20T06:44:24;4.32;;;2.92;;
9459;SDS011;4768;42.664;23.240;2023-07-20T06:46:50;7.95;;;2.65;;
9459;SDS011;4768;42.664;23.240;2023-07-20T06:49:23;8.15;;;2.65;;
9459;SDS011;4768;42.664;23.240;2023-07-20T06:51:50;8.18;;;2.85;;
9459;SDS011;4768;42.664;23.240;2023-07-20T06:54:16;6.13;;;2.85;;
9459;SDS011;4768;42.664;23.240;2023-07-20T06:56:43;5.18;;;2.78;;
9459;SDS011;4768;42.664;23.240;2023-07-20T06:59:11;6.55;;;3.05;;
9459;SDS011;4768;42.664;23.240;2023-07-20T07:01:37;7.82;;;2.78;;
9459;SDS011;4768;42.664;23.240;2023-07-20T07:04:04;7.43;;;3.60;;
9459;SDS011;4768;42.664;23.240;2023-07-20T07:06:30;4.40;;;2.92;;
9459;SDS011;4768;42.664;23.240;2023-07-20T07:08:58;7.03;;;3.22;;
9459;SDS011;4768;42.664;23.240;2023-07-20T07:11:24;7.32;;;3.40;;
9459;SDS011;4768;42.664;23.240;2023-07-20T07:13:51;5.90;;;3.38;;
9459;SDS011;4768;42.664;23.240;2023-07-20T07:16:19;6.28;;;3.17;;
9459;SDS011;4768;42.664;23.240;2023-07-20T07:18:45;9.02;;;3.25;;
9459;SDS011;4768;42.664;23.240;2023-07-20T07:21:12;8.13;;;3.25;;
9459;SDS011;4768;42.664;23.240;2023-07-20T07:23:38;6.93;;;3.10;;
9459;SDS011;4768;42.664;23.240;2023-07-20T07:26:04;5.20;;;2.88;;
9459;SDS011;4768;42.664;23.240;2023-07-20T07:28:31;13.13;;;3.28;;
9459;SDS011;4768;42.664;23.240;2023-07-20T07:30:58;11.02;;;2.88;;
9459;SDS011;4768;42.664;23.240;2023-07-20T07:33:26;12.50;;;3.38;;
9459;SDS011;4768;42.664;23.240;2023-07-20T07:35:52;7.82;;;3.00;;
9459;SDS011;4768;42.664;23.240;2023-07-20T07:38:19;12.63;;;3.15;;
9459;SDS011;4768;42.664;23.240;2023-07-20T07:40:45;5.15;;;2.83;;
9459;SDS011;4768;42.664;23.240;2023-07-20T07:43:12;6.63;;;3.03;;
9459;SDS011;4768;42.664;23.240;2023-07-20T07:45:39;6.25;;;3.00;;
9459;SDS011;4768;42.664;23.240;2023-07-20T07:48:06;6.70;;;3.33;;
9459;SDS011;4768;42.664;23.240;2023-07-20T07:50:34;10.02;;;3.45;;
9459;SDS011;4768;42.664;23.240;2023-07-20T07:53:00;7.53;;;3.30;;
9459;SDS011;4768;42.664;23.240;2023-07-20T07:55:28;9.63;;;3.60;;
9459;SDS011;4768;42.664;23.240;2023-07-20T07:57:54;4.20;;;2.97;;
9459;SDS011;4768;42.664;23.240;2023-07-20T08:00:21;7.88;;;3.20;;
9459;SDS011;4768;42.664;23.240;2023-07-20T08:02:50;4.68;;;2.92;;
9459;SDS011;4768;42.664;23.240;2023-07-20T08:05:16;4.95;;;2.75;;
9459;SDS011;4768;42.664;23.240;2023-07-20T08:07:44;10.68;;;3.00;;
9459;SDS011;4768;42.664;23.240;2023-07-20T08:10:11;8.15;;;2.90;;
9459;SDS011;4768;42.664;23.240;2023-07-20T08:12:38;6.07;;;3.00;;
9459;SDS011;4768;42.664;23.240;2023-07-20T08:15:05;5.78;;;2.55;;
9459;SDS011;4768;42.664;23.240;2023-07-20T08:17:31;5.18;;;2.22;;
9459;SDS011;4768;42.664;23.240;2023-07-20T08:19:58;6.63;;;2.22;;
9459;SDS011;4768;42.664;23.240;2023-07-20T08:22:24;3.92;;;1.90;;
9459;SDS011;4768;42.664;23.240;2023-07-20T08:24:52;3.67;;;2.08;;
9459;SDS011;4768;42.664;23.240;2023-07-20T08:27:19;6.70;;;1.73;;
9459;SDS011;4768;42.664;23.240;2023-07-20T08:29:45;5.57;;;2.08;;
9459;SDS011;4768;42.664;23.240;2023-07-20T08:32:12;5.00;;;2.08;;
9459;SDS011;4768;42.664;23.240;2023-07-20T08:34:39;4.43;;;1.98;;
9459;SDS011;4768;42.664;23.240;2023-07-20T08:37:06;4.47;;;1.92;;
9459;SDS011;4768;42.664;23.240;2023-07-20T08:39:35;3.47;;;1.80;;
9459;SDS011;4768;42.664;23.240;2023-07-20T08:42:03;4.05;;;2.10;;
9459;SDS011;4768;42.664;23.240;2023-07-20T08:44:31;5.88;;;2.03;;
9459;SDS011;4768;42.664;23.240;2023-07-20T08:46:58;5.25;;;1.90;;
9459;SDS011;4768;42.664;23.240;2023-07-20T08:49:25;4.38;;;1.73;;
9459;SDS011;4768;42.664;23.240;2023-07-20T08:51:52;5.13;;;2.22;;
9459;SDS011;4768;42.664;23.240;2023-07-20T08:54:19;2.58;;;1.88;;
9459;SDS011;4768;42.664;23.240;2023-07-20T08:56:45;5.65;;;2.00;;
9459;SDS011;4768;42.664;23.240;2023-07-20T08:59:14;5.25;;;1.70;;
9459;SDS011;4768;42.664;23.240;2023-07-20T09:01:42;8.13;;;2.20;;
9459;SDS011;4768;42.664;23.240;2023-07-20T09:04:10;5.82;;;1.90;;
9459;SDS011;4768;42.664;23.240;2023-07-20T09:06:36;3.63;;;1.58;;
9459;SDS011;4768;42.664;23.240;2023-07-20T09:09:03;5.28;;;1.70;;
9459;SDS011;4768;42.664;23.240;2023-07-20T09:11:30;4.85;;;1.88;;
9459;SDS011;4768;42.664;23.240;2023-07-20T09:14:03;3.40;;;1.42;;
9459;SDS011;4768;42.664;23.240;2023-07-20T09:16:31;4.15;;;2.05;;
9459;SDS011;4768;42.664;23.240;2023-07-20T09:18:58;4.90;;;1.85;;
9459;SDS011;4768;42.664;23.240;2023-07-20T09:21:27;7.03;;;2.03;;
9459;SDS011;4768;42.664;23.240;2023-07-20T09:23:56;5.82;;;2.25;;
9459;SDS011;4768;42.664;23.240;2023-07-20T09:26:22;6.15;;;2.30;;
9459;SDS011;4768;42.664;23.240;2023-07-20T09:28:49;5.90;;;1.90;;
9459;SDS011;4768;42.664;23.240;2023-07-20T09:31:16;3.40;;;1.80;;
9459;SDS011;4768;42.664;23.240;2023-07-20T09:33:45;5.47;;;1.90;;
9459;SDS011;4768;42.664;23.240;2023-07-20T09:36:11;3.70;;;1.63;;
9459;SDS011;4768;42.664;23.240;2023-07-20T09:38:38;7.47;;;2.00;;
9459;SDS011;4768;42.664;23.240;2023-07-20T09:41:05;5.15;;;1.70;;
9459;SDS011;4768;42.664;23.240;2023-07-20T09:43:31;5.00;;;1.55;;
9459;SDS011;4768;42.664;23.240;2023-07-20T09:45:59;4.32;;;1.63;;
9459;SDS011;4768;42.664;23.240;2023-07-20T09:48:26;6.05;;;2.15;;
9459;SDS011;4768;42.664;23.240;2023-07-20T09:50:55;3.10;;;1.70;;
9459;SDS011;4768;42.664;23.240;2023-07-20T09:53:22;6.03;;;1.90;;
9459;SDS011;4768;42.664;23.240;2023-07-20T09:55:50;2.45;;;1.40;;
9459;SDS011;4768;42.664;23.240;2023-07-20T09:58:18;3.30;;;1.90;;
9459;SDS011;4768;42.664;23.240;2023-07-20T10:00:46;3.08;;;1.50;;
9459;SDS011;4768;42.664;23.240;2023-07-20T10:03:16;6.95;;;2.10;;
9459;SDS011;4768;42.664;23.240;2023-07-20T10:05:46;6.15;;;1.73;;
9459;SDS011;4768;42.664;23.240;2023-07-20T10:08:15;4.57;;;1.50;;
9459;SDS011;4768;42.664;23.240;2023-07-20T10:10:43;6.15;;;1.88;;
9459;SDS011;4768;42.664;23.240;2023-07-20T10:13:11;3.90;;;1.45;;
9459;SDS011;4768;42.664;23.240;2023-07-20T10:15:40;5.43;;;2.10;;
9459;SDS011;4768;42.664;23.240;2023-07-20T10:18:09;3.53;;;1.73;;
9459;SDS011;4768;42.664;23.240;2023-07-20T10:20:39;9.80;;;2.17;;
9459;SDS011;4768;42.664;23.240;2023-07-20T10:23:06;4.05;;;1.80;;
9459;SDS011;4768;42.664;23.240;2023-07-20T10:25:34;2.03;;;1.30;;
9459;SDS011;4768;42.664;23.240;2023-07-20T10:28:03;4.03;;;1.40;;
9459;SDS011;4768;42.664;23.240;2023-07-20T10:30:30;4.22;;;1.63;;
9459;SDS011;4768;42.664;23.240;2023-07-20T10:32:57;4.78;;;1.50;;
9459;SDS011;4768;42.664;23.240;2023-07-20T10:35:28;5.70;;;1.48;;
9459;SDS011;4768;42.664;23.240;2023-07-20T10:37:54;4.90;;;1.30;;
9459;SDS011;4768;42.664;23.240;2023-07-20T10:40:28;3.53;;;1.55;;
9459;SDS011;4768;42.664;23.240;2023-07-20T10:43:00;3.70;;;1.92;;
9459;SDS011;4768;42.664;23.240;2023-07-20T10:45:34;3.13;;;1.40;;
9459;SDS011;4768;42.664;23.240;2023-07-20T10:48:03;4.65;;;1.77;;
9459;SDS011;4768;42.664;23.240;2023-07-20T10:50:29;6.18;;;1.92;;
9459;SDS011;4768;42.664;23.240;2023-07-20T10:53:03;7.22;;;2.47;;
9459;SDS011;4768;42.664;23.240;2023-07-20T10:55:31;4.15;;;1.80;;
9459;SDS011;4768;42.664;23.240;2023-07-20T10:58:10;5.35;;;2.30;;
9459;SDS011;4768;42.664;23.240;2023-07-20T11:00:37;6.15;;;2.33;;
9459;SDS011;4768;42.664;23.240;2023-07-20T11:03:04;3.47;;;2.25;;
9459;SDS011;4768;42.664;23.240;2023-07-20T11:05:34;7.10;;;2.85;;
9459;SDS011;4768;42.664;23.240;2023-07-20T11:08:00;4.85;;;2.60;;
9459;SDS011;4768;42.664;23.240;2023-07-20T11:10:27;4.93;;;2.40;;
9459;SDS011;4768;42.664;23.240;2023-07-20T11:15:46;5.38;;;2.80;;
9459;SDS011;4768;42.664;23.240;2023-07-20T11:18:13;7.43;;;2.60;;
9459;SDS011;4768;42.664;23.240;2023-07-20T11:20:40;5.43;;;2.50;;
9459;SDS011;4768;42.664;23.240;2023-07-20T11:23:07;5.03;;;2.55;;
9459;SDS011;4768;42.664;23.240;2023-07-20T11:25:38;6.45;;;2.72;;
9459;SDS011;4768;42.664;23.240;2023-07-20T11:28:06;7.13;;;3.30;;
9459;SDS011;4768;42.664;23.240;2023-07-20T11:30:33;7.90;;;3.13;;
9459;SDS011;4768;42.664;23.240;2023-07-20T11:33:01;8.25;;;3.35;;
9459;SDS011;4768;42.664;23.240;2023-07-20T11:35:28;6.47;;;3.67;;
9459;SDS011;4768;42.664;23.240;2023-07-20T11:37:54;8.50;;;4.00;;
9459;SDS011;4768;42.664;23.240;2023-07-20T11:40:21;6.50;;;3.72;;
9459;SDS011;4768;42.664;23.240;2023-07-20T11:42:49;4.18;;;3.58;;
9459;SDS011;4768;42.664;23.240;2023-07-20T11:45:17;6.32;;;3.58;;
9459;SDS011;4768;42.664;23.240;2023-07-20T11:47:44;3.85;;;3.47;;
9459;SDS011;4768;42.664;23.240;2023-07-20T11:50:12;4.30;;;3.08;;
9459;SDS011;4768;42.664;23.240;2023-07-20T11:52:39;4.65;;;3.67;;
9459;SDS011;4768;42.664;23.240;2023-07-20T11:55:06;7.05;;;2.92;;
9459;SDS011;4768;42.664;23.240;2023-07-20T11:57:33;6.50;;;3.53;;
9459;SDS011;4768;42.664;23.240;2023-07-20T12:00:01;5.20;;;2.72;;
9459;SDS011;4768;42.664;23.240;2023-07-20T12:02:29;3.78;;;2.50;;
9459;SDS011;4768;42.664;23.240;2023-07-20T12:04:56;4.68;;;3.40;;
9459;SDS011;4768;42.664;23.240;2023-07-20T12:07:25;5.68;;;3.47;;
9459;SDS011;4768;42.664;23.240;2023-07-20T12:10:02;6.50;;;2.90;;
9459;SDS011;4768;42.664;23.240;2023-07-20T12:12:30;4.88;;;2.85;;
9459;SDS011;4768;42.664;23.240;2023-07-20T12:15:11;5.47;;;2.30;;
9459;SDS011;4768;42.664;23.240;2023-07-20T12:17:41;9.93;;;2.70;;
9459;SDS011;4768;42.664;23.240;2023-07-20T12:20:08;5.00;;;2.50;;
9459;SDS011;4768;42.664;23.240;2023-07-20T12:22:39;5.35;;;2.20;;
9459;SDS011;4768;42.664;23.240;2023-07-20T12:25:06;3.83;;;2.55;;
9459;SDS011;4768;42.664;23.240;2023-07-20T12:27:32;6.75;;;2.65;;
9459;SDS011;4768;42.664;23.240;2023-07-20T12:29:59;6.63;;;2.30;;
9459;SDS011;4768;42.664;23.240;2023-07-20T12:32:25;4.80;;;2.35;;
9459;SDS011;4768;42.664;23.240;2023-07-20T12:34:52;5.90;;;2.50;;
9459;SDS011;4768;42.664;23.240;2023-07-20T12:37:18;3.95;;;2.28;;
9459;SDS011;4768;42.664;23.240;2023-07-20T12:39:46;6.88;;;2.15;;
9459;SDS011;4768;42.664;23.240;2023-07-20T12:42:13;3.53;;;2.08;;
9459;SDS011;4768;42.664;23.240;2023-07-20T12:44:40;8.82;;;2.60;;
9459;SDS011;4768;42.664;23.240;2023-07-20T12:47:06;4.88;;;2.50;;
9459;SDS011;4768;42.664;23.240;2023-07-20T12:49:33;6.93;;;2.30;;
9459;SDS011;4768;42.664;23.240;2023-07-20T12:51:59;4.88;;;2.50;;
9459;SDS011;4768;42.664;23.240;2023-07-20T12:54:26;6.35;;;2.42;;
9459;SDS011;4768;42.664;23.240;2023-07-20T12:56:54;6.47;;;2.13;;
9459;SDS011;4768;42.664;23.240;2023-07-20T12:59:20;6.85;;;2.08;;
9459;SDS011;4768;42.664;23.240;2023-07-20T13:01:47;5.68;;;2.00;;
9459;SDS011;4768;42.664;23.240;2023-07-20T13:04:13;4.88;;;1.95;;
9459;SDS011;4768;42.664;23.240;2023-07-20T13:06:40;3.92;;;2.67;;
9459;SDS011;4768;42.664;23.240;2023-07-20T13:09:06;5.25;;;2.40;;
9459;SDS011;4768;42.664;23.240;2023-07-20T13:11:33;4.55;;;2.33;;
9459;SDS011;4768;42.664;23.240;2023-07-20T13:14:01;3.53;;;1.90;;
9459;SDS011;4768;42.664;23.240;2023-07-20T13:16:27;6.45;;;2.17;;
9459;SDS011;4768;42.664;23.240;2023-07-20T13:18:54;4.68;;;2.47;;
9459;SDS011;4768;42.664;23.240;2023-07-20T13:21:20;4.85;;;2.00;;
9459;SDS011;4768;42.664;23.240;2023-07-20T13:23:47;6.55;;;2.40;;
9459;SDS011;4768;42.664;23.240;2023-07-20T13:26:14;5.50;;;2.08;;
9459;SDS011;4768;42.664;23.240;2023-07-20T13:28:41;4.63;;;2.28;;
9459;SDS011;4768;42.664;23.240;2023-07-20T13:31:08;4.65;;;2.28;;
9459;SDS011;4768;42.664;23.240;2023-07-20T13:33:36;5.93;;;1.77;;
9459;SDS011;4768;42.664;23.240;2023-07-20T13:36:02;7.18;;;2.47;;
9459;SDS011;4768;42.664;23.240;2023-07-20T13:38:30;3.05;;;2.20;;
9459;SDS011;4768;42.664;23.240;2023-07-20T13:40:57;9.25;;;2.22;;
9459;SDS011;4768;42.664;23.240;2023-07-20T13:43:24;2.88;;;1.73;;
9459;SDS011;4768;42.664;23.240;2023-07-20T13:45:51;3.60;;;2.20;;
9459;SDS011;4768;42.664;23.240;2023-07-20T13:48:19;8.57;;;2.58;;
9459;SDS011;4768;42.664;23.240;2023-07-20T13:50:48;3.42;;;1.77;;
9459;SDS011;4768;42.664;23.240;2023-07-20T13:53:14;5.18;;;1.77;;
9459;SDS011;4768;42.664;23.240;2023-07-20T13:55:41;5.40;;;1.75;;
9459;SDS011;4768;42.664;23.240;2023-07-20T13:58:08;7.55;;;2.05;;
9459;SDS011;4768;42.664;23.240;2023-07-20T14:00:35;4.10;;;1.67;;
9459;SDS011;4768;42.664;23.240;2023-07-20T14:03:02;3.00;;;1.67;;
9459;SDS011;4768;42.664;23.240;2023-07-20T14:05:30;5.35;;;2.28;;
9459;SDS011;4768;42.664;23.240;2023-07-20T14:07:57;4.15;;;1.35;;
9459;SDS011;4768;42.664;23.240;2023-07-20T14:10:23;2.35;;;1.33;;
9459;SDS011;4768;42.664;23.240;2023-07-20T14:12:49;4.70;;;2.00;;
9459;SDS011;4768;42.664;23.240;2023-07-20T14:15:16;3.67;;;1.50;;
9459;SDS011;4768;42.664;23.240;2023-07-20T14:17:43;4.28;;;1.70;;
9459;SDS011;4768;42.664;23.240;2023-07-20T14:20:10;5.63;;;2.10;;
9459;SDS011;4768;42.664;23.240;2023-07-20T14:22:38;5.60;;;1.90;;
9459;SDS011;4768;42.664;23.240;2023-07-20T14:25:07;8.57;;;1.70;;
9459;SDS011;4768;42.664;23.240;2023-07-20T14:27:33;7.53;;;1.85;;
9459;SDS011;4768;42.664;23.240;2023-07-20T14:30:00;4.15;;;1.90;;
9459;SDS011;4768;42.664;23.240;2023-07-20T14:32:26;6.00;;;1.55;;
9459;SDS011;4768;42.664;23.240;2023-07-20T14:34:53;4.13;;;1.70;;
9459;SDS011;4768;42.664;23.240;2023-07-20T14:37:19;5.03;;;1.85;;
9459;SDS011;4768;42.664;23.240;2023-07-20T14:39:47;7.78;;;1.80;;
9459;SDS011;4768;42.664;23.240;2023-07-20T14:42:14;6.72;;;1.50;;
9459;SDS011;4768;42.664;23.240;2023-07-20T14:44:40;5.93;;;1.85;;
9459;SDS011;4768;42.664;23.240;2023-07-20T14:47:07;3.20;;;1.67;;
9459;SDS011;4768;42.664;23.240;2023-07-20T14:49:33;4.43;;;1.85;;
9459;SDS011;4768;42.664;23.240;2023-07-20T14:52:00;3.83;;;1.80;;
9459;SDS011;4768;42.664;23.240;2023-07-20T14:54:27;2.42;;;1.50;;
9459;SDS011;4768;42.664;23.240;2023-07-20T14:56:54;3.05;;;2.17;;
9459;SDS011;4768;42.664;23.240;2023-07-20T14:59:21;5.50;;;2.08;;
9459;SDS011;4768;42.664;23.240;2023-07-20T15:01:48;2.75;;;1.60;;
9459;SDS011;4768;42.664;23.240;2023-07-20T15:04:14;6.03;;;2.00;;
9459;SDS011;4768;42.664;23.240;2023-07-20T15:06:41;5.10;;;1.80;;